createdAt,value
2019-02-12T00:01:35.634Z,69.06
2019-02-12T00:04:02.239Z,69.15
2019-02-12T00:06:28.823Z,69.30
2019-02-12T00:08:56.548Z,69.42
2019-02-12T00:11:25.075Z,69.35
2019-02-12T00:13:51.587Z,69.36
2019-02-12T00:16:18.206Z,69.65
2019-02-12T00:18:45.983Z,69.01
2019-02-12T00:21:13.098Z,68.34
2019-02-12T00:23:39.861Z,68.62
2019-02-12T00:26:06.410Z,66.92
2019-02-12T00:28:33.152Z,67.27
2019-02-12T00:31:02.373Z,66.69
2019-02-12T00:33:29.325Z,67.36
2019-02-12T00:35:56.250Z,67.40
2019-02-12T00:38:22.985Z,67.41
2019-02-12T00:40:49.934Z,67.52
2019-02-12T00:43:16.868Z,67.56
2019-02-12T00:45:43.447Z,67.39
2019-02-12T00:48:10.072Z,67.64
2019-02-12T00:50:36.948Z,67.54
2019-02-12T00:53:03.549Z,67.64
2019-02-12T00:55:30.347Z,68.11
2019-02-12T00:57:56.975Z,66.98
2019-02-12T01:00:24.879Z,67.44
2019-02-12T01:02:52.197Z,67.74
2019-02-12T01:05:19.885Z,66.94
2019-02-12T01:07:46.828Z,67.31
2019-02-12T01:10:13.570Z,67.67
2019-02-12T01:12:40.125Z,67.32
2019-02-12T01:15:08.659Z,67.26
2019-02-12T01:17:35.303Z,67.63
2019-02-12T01:20:02.040Z,67.12
2019-02-12T01:22:28.996Z,67.14
2019-02-12T01:24:55.932Z,67.56
2019-02-12T01:27:22.481Z,67.20
2019-02-12T01:29:49.145Z,66.63
2019-02-12T01:32:15.736Z,65.34
2019-02-12T01:34:42.383Z,65.18
2019-02-12T01:37:09.081Z,64.78
2019-02-12T01:39:35.725Z,65.09
2019-02-12T01:42:04.114Z,65.44
2019-02-12T01:44:30.956Z,64.97
2019-02-12T01:46:57.641Z,64.84
2019-02-12T01:49:24.285Z,64.19
2019-02-12T01:51:50.832Z,63.75
2019-02-12T01:54:19.781Z,62.84
2019-02-12T01:56:46.618Z,62.31
2019-02-12T01:59:14.196Z,62.57
2019-02-12T02:01:40.985Z,62.37
2019-02-12T02:04:07.821Z,62.91
2019-02-12T02:06:34.874Z,62.61
2019-02-12T02:09:01.810Z,62.95
2019-02-12T02:11:28.399Z,62.70
2019-02-12T02:13:55.403Z,62.51
2019-02-12T02:16:22.087Z,62.39
2019-02-12T02:18:50.080Z,62.24
2019-02-12T02:21:16.926Z,62.57
2019-02-12T02:23:45.767Z,62.96
2019-02-12T02:26:12.405Z,62.26
2019-02-12T02:28:38.967Z,62.75
2019-02-12T02:31:06.224Z,62.90
2019-02-12T02:33:32.839Z,62.75
2019-02-12T02:35:59.470Z,63.36
2019-02-12T02:38:26.373Z,63.35
2019-02-12T02:40:53.151Z,63.34
2019-02-12T02:43:19.734Z,63.33
2019-02-12T02:45:46.351Z,63.05
2019-02-12T02:48:13.065Z,63.31
2019-02-12T02:50:39.734Z,63.41
2019-02-12T02:53:06.787Z,63.82
2019-02-12T02:55:33.407Z,63.66
2019-02-12T02:57:59.932Z,64.12
2019-02-12T03:00:26.431Z,64.59
2019-02-12T03:02:53.022Z,64.81
2019-02-12T03:05:19.549Z,65.30
2019-02-12T03:07:46.082Z,65.13
2019-02-12T03:10:12.674Z,65.51
2019-02-12T03:12:39.170Z,65.97
2019-02-12T03:15:06.602Z,66.24
2019-02-12T03:17:38.995Z,66.98
2019-02-12T03:20:07.376Z,67.47
2019-02-12T03:22:33.876Z,67.64
2019-02-12T03:25:00.454Z,67.89
2019-02-12T03:27:27.213Z,68.47
2019-02-12T03:29:53.686Z,68.86
2019-02-12T03:32:20.278Z,68.64
2019-02-12T03:34:46.766Z,68.20
2019-02-12T03:37:13.273Z,68.47
2019-02-12T03:39:41.058Z,68.62
2019-02-12T03:42:07.901Z,68.34
2019-02-12T03:44:35.268Z,68.46
2019-02-12T03:47:02.188Z,68.65
2019-02-12T03:49:29.101Z,68.62
2019-02-12T03:51:56.380Z,68.00
2019-02-12T03:54:23.402Z,67.81
2019-02-12T03:56:50.361Z,67.95
2019-02-12T03:59:17.339Z,68.53
2019-02-12T04:01:44.387Z,68.50
2019-02-12T04:04:11.691Z,67.41
2019-02-12T04:06:38.344Z,66.59
2019-02-12T04:09:05.460Z,66.64
2019-02-12T04:11:32.022Z,65.72
2019-02-12T04:13:58.975Z,66.10
2019-02-12T04:16:25.612Z,66.58
2019-02-12T04:18:52.263Z,65.94
2019-02-12T04:21:18.906Z,66.18
2019-02-12T04:23:45.680Z,65.95
2019-02-12T04:26:12.272Z,66.20
2019-02-12T04:28:38.910Z,66.19
2019-02-12T04:31:05.489Z,65.89
2019-02-12T04:33:32.078Z,66.29
2019-02-12T04:35:58.707Z,66.30
2019-02-12T04:38:25.211Z,66.51
2019-02-12T04:40:51.746Z,66.32
2019-02-12T04:43:18.703Z,66.42
2019-02-12T04:45:48.188Z,66.86
2019-02-12T04:48:14.688Z,67.11
2019-02-12T04:50:41.215Z,67.19
2019-02-12T04:53:07.727Z,67.06
2019-02-12T04:55:34.269Z,67.20
2019-02-12T04:58:00.873Z,67.50
2019-02-12T05:00:27.742Z,67.94
2019-02-12T05:02:54.293Z,68.36
2019-02-12T05:05:20.797Z,68.52
2019-02-12T05:07:47.407Z,68.91
2019-02-12T05:10:15.156Z,69.01
2019-02-12T05:12:41.665Z,69.14
2019-02-12T05:15:08.463Z,69.45
2019-02-12T05:17:36.080Z,69.90
2019-02-12T05:20:04.110Z,69.79
2019-02-12T05:22:30.581Z,70.14
2019-02-12T05:24:57.496Z,69.89
2019-02-12T05:27:24.012Z,70.47
2019-02-12T05:29:50.537Z,70.59
2019-02-12T05:32:17.210Z,70.71
2019-02-12T05:34:44.832Z,71.01
2019-02-12T05:37:11.313Z,71.13
2019-02-12T05:39:38.107Z,71.54
2019-02-12T05:42:04.603Z,71.66
2019-02-12T05:44:32.075Z,71.74
2019-02-12T05:46:58.594Z,71.60
2019-02-12T05:49:25.177Z,71.54
2019-02-12T05:51:51.699Z,71.69
2019-02-12T05:54:18.189Z,71.56
2019-02-12T05:56:49.468Z,71.99
2019-02-12T05:59:15.999Z,71.86
2019-02-12T06:01:44.650Z,71.75
2019-02-12T06:04:11.239Z,72.27
2019-02-12T06:06:38.765Z,73.37
2019-02-12T06:09:05.637Z,73.53
2019-02-12T06:11:32.149Z,74.11
2019-02-12T06:13:58.910Z,74.15
2019-02-12T06:16:25.423Z,74.44
2019-02-12T06:18:51.957Z,74.51
2019-02-12T06:21:18.653Z,74.59
2019-02-12T06:23:45.550Z,74.69
2019-02-12T06:26:12.207Z,74.96
2019-02-12T06:28:38.740Z,74.97
2019-02-12T06:31:05.303Z,74.93
2019-02-12T06:33:32.231Z,75.58
2019-02-12T06:35:58.798Z,76.68
2019-02-12T06:38:25.409Z,78.00
2019-02-12T06:40:52.051Z,78.34
2019-02-12T06:43:18.732Z,78.72
2019-02-12T06:45:45.423Z,78.77
2019-02-12T06:48:12.056Z,78.79
2019-02-12T06:50:38.899Z,78.70
2019-02-12T06:53:12.228Z,78.66
2019-02-12T06:55:34.439Z,78.20
2019-02-12T06:58:00.984Z,78.82
2019-02-12T07:00:27.554Z,79.67
2019-02-12T07:03:16.921Z,80.95
2019-02-12T07:06:15.321Z,81.83
2019-02-12T07:09:05.772Z,81.82
2019-02-12T07:12:03.988Z,81.74
2019-02-12T07:14:53.247Z,81.90
2019-02-12T07:17:45.409Z,81.78
2019-02-12T07:20:52.582Z,82.20
2019-02-12T07:23:57.093Z,81.98
2019-02-12T07:26:35.137Z,82.13
2019-02-12T07:29:38.120Z,82.02
2019-02-12T07:32:37.534Z,82.00
2019-02-12T07:35:26.722Z,82.22
2019-02-12T07:38:24.441Z,82.38
2019-02-12T07:41:22.802Z,82.65
2019-02-12T07:44:06.794Z,82.76
2019-02-12T07:47:10.390Z,82.86
2019-02-12T07:49:48.902Z,82.74
2019-02-12T07:52:52.100Z,82.41
2019-02-12T07:55:54.710Z,82.55
2019-02-12T07:58:55.372Z,82.65
2019-02-12T08:02:19.856Z,82.69
2019-02-12T08:05:23.064Z,83.08
2019-02-12T08:08:30.121Z,83.89
2019-02-12T08:11:33.689Z,84.72
2019-02-12T08:14:23.079Z,85.84
2019-02-12T08:17:17.150Z,86.12
2019-02-12T08:20:02.985Z,86.20
2019-02-12T08:22:56.663Z,86.17
2019-02-12T08:26:05.360Z,86.38
2019-02-12T08:29:13.113Z,86.69
2019-02-12T08:32:29.927Z,86.74
2019-02-12T08:36:00.096Z,86.25
2019-02-12T08:39:04.658Z,85.43
2019-02-12T08:42:05.317Z,84.92
2019-02-12T08:45:01.551Z,84.93
2019-02-12T08:48:17.921Z,84.69
2019-02-12T08:51:25.566Z,83.37
2019-02-12T08:54:31.821Z,83.04
2019-02-12T08:57:22.255Z,81.93
2019-02-12T09:00:12.050Z,80.14
2019-02-12T09:03:27.021Z,78.61
2019-02-12T09:06:19.282Z,77.62
2019-02-12T09:09:30.820Z,77.33
2019-02-12T09:12:28.194Z,77.32
2019-02-12T09:15:43.345Z,77.04
2019-02-12T09:18:39.642Z,77.26
2019-02-12T09:21:46.749Z,77.46
2019-02-12T09:24:45.539Z,77.47
2019-02-12T09:27:25.133Z,78.46
2019-02-12T09:30:32.780Z,78.30
2019-02-12T09:33:19.287Z,78.53
2019-02-12T09:36:21.556Z,78.45
2019-02-12T09:39:16.046Z,78.56
2019-02-12T09:41:53.182Z,78.67
2019-02-12T09:44:46.925Z,78.65
2019-02-12T09:48:12.539Z,78.22
2019-02-12T09:51:17.590Z,77.75
2019-02-12T09:54:24.216Z,77.94
2019-02-12T09:57:15.152Z,78.02
2019-02-12T10:00:25.704Z,77.58
2019-02-12T10:03:19.501Z,78.27
2019-02-12T10:06:34.199Z,78.26
2019-02-12T10:09:46.493Z,78.33
2019-02-12T10:12:53.959Z,78.82
2019-02-12T10:16:11.569Z,78.80
2019-02-12T10:19:14.770Z,79.50
2019-02-12T10:22:17.706Z,79.71
2019-02-12T10:25:22.281Z,80.87
2019-02-12T10:31:40.044Z,84.14
2019-02-12T10:34:06.860Z,83.93
2019-02-12T10:36:33.611Z,83.69
2019-02-12T10:39:01.750Z,83.14
2019-02-12T10:41:32.012Z,82.64
2019-02-12T10:44:00.471Z,81.04
2019-02-12T10:46:27.323Z,81.06
2019-02-12T10:48:54.181Z,80.31
2019-02-12T10:51:21.062Z,80.27
2019-02-12T10:53:47.731Z,78.30
2019-02-12T10:56:15.206Z,78.83
2019-02-12T10:58:43.106Z,79.79
2019-02-12T11:01:09.735Z,80.37
2019-02-12T11:03:36.515Z,80.87
2019-02-12T11:06:03.409Z,81.93
2019-02-12T11:08:30.197Z,82.30
2019-02-12T11:10:56.955Z,81.96
2019-02-12T11:13:23.577Z,81.83
2019-02-12T11:15:50.327Z,80.94
2019-02-12T11:18:17.035Z,80.59
2019-02-12T11:20:43.745Z,79.95
2019-02-12T11:23:11.027Z,81.13
2019-02-12T11:25:37.886Z,80.79
2019-02-12T11:28:04.701Z,81.37
2019-02-12T11:30:31.295Z,80.71
2019-02-12T11:32:58.037Z,80.26
2019-02-12T11:35:25.021Z,79.20
2019-02-12T11:37:52.138Z,78.53
2019-02-12T11:40:19.092Z,78.13
2019-02-12T11:42:46.125Z,77.86
2019-02-12T11:45:13.067Z,77.21
2019-02-12T11:47:40.255Z,75.73
2019-02-12T11:50:07.603Z,75.29
2019-02-12T11:52:34.318Z,74.82
2019-02-12T11:55:01.267Z,72.77
2019-02-12T11:57:28.133Z,71.52
2019-02-12T11:59:54.942Z,72.79
2019-02-12T12:02:25.499Z,73.08
2019-02-12T12:04:52.151Z,74.12
2019-02-12T12:07:18.862Z,75.71
2019-02-12T12:09:45.714Z,78.54
2019-02-12T12:12:12.401Z,80.20
2019-02-12T12:14:39.395Z,79.71
2019-02-12T12:17:06.903Z,78.53
2019-02-12T12:19:33.558Z,78.46
2019-02-12T12:22:00.235Z,78.90
2019-02-12T12:24:27.316Z,78.46
2019-02-12T12:26:54.197Z,77.27
2019-02-12T12:29:20.781Z,76.81
2019-02-12T12:31:47.696Z,75.03
2019-02-12T12:34:15.101Z,74.17
2019-02-12T12:36:41.835Z,73.66
2019-02-12T12:39:08.729Z,72.15
2019-02-12T12:41:35.565Z,73.07
2019-02-12T12:44:02.573Z,72.48
2019-02-12T12:46:29.479Z,72.52
2019-02-12T12:48:56.785Z,71.40
2019-02-12T12:51:23.596Z,70.72
2019-02-12T12:53:51.278Z,70.41
2019-02-12T12:56:18.010Z,71.03
2019-02-12T12:58:44.794Z,70.55
2019-02-12T13:01:11.861Z,70.15
2019-02-12T13:03:38.726Z,70.14
2019-02-12T13:06:05.311Z,69.17
2019-02-12T13:08:32.227Z,69.64
2019-02-12T13:10:59.017Z,69.93
2019-02-12T13:13:31.685Z,69.79
2019-02-12T13:15:58.662Z,69.39
2019-02-12T13:18:26.159Z,69.33
2019-02-12T13:20:53.130Z,69.93
2019-02-12T13:23:20.031Z,69.58
2019-02-12T13:25:47.466Z,69.94
2019-02-12T13:28:14.285Z,69.63
2019-02-12T13:30:40.939Z,69.55
2019-02-12T13:33:07.872Z,70.25
2019-02-12T13:35:35.741Z,71.16
2019-02-12T13:38:02.733Z,71.16
2019-02-12T13:40:29.498Z,70.96
2019-02-12T13:42:56.253Z,69.86
2019-02-12T13:45:22.973Z,70.17
2019-02-12T13:47:50.111Z,70.82
2019-02-12T13:50:18.595Z,72.09
2019-02-12T13:52:45.397Z,72.71
2019-02-12T13:55:17.278Z,73.57
2019-02-12T13:57:41.335Z,74.05
2019-02-12T14:00:09.847Z,73.71
2019-02-12T14:02:36.656Z,74.67
2019-02-12T14:05:04.559Z,75.06
2019-02-12T14:07:31.713Z,75.32
2019-02-12T14:09:59.129Z,75.89
2019-02-12T14:12:26.140Z,75.55
2019-02-12T14:14:53.032Z,75.10
2019-02-12T14:17:20.422Z,75.10
2019-02-12T14:19:47.575Z,74.01
2019-02-12T14:22:14.677Z,73.57
2019-02-12T14:24:42.014Z,72.92
2019-02-12T14:27:09.607Z,73.51
2019-02-12T14:29:36.814Z,73.60
2019-02-12T14:32:04.002Z,73.03
2019-02-12T14:34:31.152Z,73.06
2019-02-12T14:36:57.721Z,72.75
2019-02-12T14:39:24.537Z,72.95
2019-02-12T14:41:51.538Z,73.38
2019-02-12T14:44:18.370Z,73.51
2019-02-12T14:46:45.437Z,73.37
2019-02-12T14:49:12.140Z,73.49
2019-02-12T14:51:38.753Z,73.91
2019-02-12T14:54:07.229Z,73.87
2019-02-12T14:56:34.275Z,73.16
2019-02-12T14:59:00.973Z,72.82
2019-02-12T15:01:27.900Z,72.78
2019-02-12T15:03:54.823Z,72.95
2019-02-12T15:06:21.976Z,73.06
2019-02-12T15:08:48.898Z,72.77
2019-02-12T15:11:15.538Z,71.77
2019-02-12T15:13:42.404Z,71.82
2019-02-12T15:16:09.100Z,70.52
2019-02-12T15:18:35.741Z,70.18
2019-02-12T15:21:02.923Z,69.58
2019-02-12T15:23:29.618Z,69.85
2019-02-12T15:25:56.267Z,69.56
2019-02-12T15:28:23.405Z,69.43
2019-02-12T15:30:50.208Z,69.72
2019-02-12T15:33:17.394Z,70.20
2019-02-12T15:35:44.579Z,70.01
2019-02-12T15:38:11.294Z,70.21
2019-02-12T15:40:37.859Z,70.14
2019-02-12T15:43:04.861Z,70.58
2019-02-12T15:45:31.638Z,70.60
2019-02-12T15:47:58.741Z,71.12
2019-02-12T15:50:28.185Z,71.17
2019-02-12T15:52:55.331Z,71.35
2019-02-12T15:55:22.748Z,71.32
2019-02-12T15:57:52.081Z,71.37
2019-02-12T16:00:20.851Z,71.74
2019-02-12T16:02:47.770Z,72.06
2019-02-12T16:05:14.638Z,72.67
2019-02-12T16:07:47.438Z,72.83
2019-02-12T16:10:19.407Z,72.78
2019-02-12T16:12:48.646Z,72.59
2019-02-12T16:15:15.761Z,72.97
2019-02-12T16:17:45.709Z,73.45
2019-02-12T16:20:17.221Z,73.65
2019-02-12T16:22:45.176Z,73.85
2019-02-12T16:25:19.137Z,74.13
2019-02-12T16:27:47.234Z,74.25
2019-02-12T16:30:16.424Z,74.18
2019-02-12T16:32:48.614Z,74.42
2019-02-12T16:35:16.938Z,74.57
2019-02-12T16:37:46.291Z,74.61
2019-02-12T16:40:15.866Z,74.89
2019-02-12T16:42:43.651Z,74.69
2019-02-12T16:45:14.362Z,74.70
2019-02-12T16:47:41.110Z,74.80
2019-02-12T16:50:13.989Z,74.93
2019-02-12T16:52:44.327Z,75.19
2019-02-12T16:55:12.647Z,75.00
2019-02-12T16:57:40.412Z,74.97
2019-02-12T17:00:15.499Z,75.20
2019-02-12T17:02:43.075Z,75.40
2019-02-12T17:05:13.002Z,75.67
2019-02-12T17:07:39.598Z,75.61
2019-02-12T17:10:07.189Z,75.71
2019-02-12T17:12:34.188Z,75.56
2019-02-12T17:15:01.582Z,75.07
2019-02-12T17:17:28.368Z,74.69
2019-02-12T17:19:56.149Z,74.44
2019-02-12T17:22:22.989Z,74.27
2019-02-12T17:24:49.720Z,74.06
2019-02-12T17:27:16.805Z,74.27
2019-02-12T17:29:43.685Z,74.01
2019-02-12T17:32:11.025Z,73.87
2019-02-12T17:34:37.984Z,73.68
2019-02-12T17:37:04.824Z,73.62
2019-02-12T17:39:31.771Z,73.72
2019-02-12T17:41:59.685Z,74.08
2019-02-12T17:44:26.740Z,74.08
2019-02-12T17:46:53.589Z,74.39
2019-02-12T17:49:20.886Z,74.27
2019-02-12T17:51:47.647Z,74.00
2019-02-12T17:54:14.622Z,74.16
2019-02-12T17:56:41.784Z,74.02
2019-02-12T17:59:08.539Z,74.08
2019-02-12T18:01:35.227Z,73.89
2019-02-12T18:04:02.663Z,73.98
2019-02-12T18:06:30.272Z,74.31
2019-02-12T18:08:59.428Z,74.15
2019-02-12T18:11:26.515Z,74.22
2019-02-12T18:13:53.790Z,74.35
2019-02-12T18:16:20.986Z,74.15
2019-02-12T18:18:47.940Z,73.82
2019-02-12T18:21:15.164Z,73.94
2019-02-12T18:23:45.650Z,73.58
2019-02-12T18:26:15.270Z,73.18
2019-02-12T18:28:45.579Z,73.38
2019-02-12T18:31:13.536Z,73.24
2019-02-12T18:33:41.762Z,73.08
2019-02-12T18:36:11.175Z,73.15
2019-02-12T18:38:38.162Z,73.41
2019-02-12T18:41:04.901Z,73.54
2019-02-12T18:43:31.736Z,73.60
2019-02-12T18:45:58.617Z,73.88
2019-02-12T18:48:25.159Z,73.84
2019-02-12T18:50:51.778Z,73.66
2019-02-12T18:53:20.834Z,73.60
2019-02-12T18:55:47.715Z,73.89
2019-02-12T18:58:14.285Z,74.28
2019-02-12T19:00:46.072Z,74.42
2019-02-12T19:03:13.609Z,74.41
2019-02-12T19:09:39.871Z,74.65
2019-02-12T19:12:08.047Z,74.78
2019-02-12T19:14:44.920Z,75.01
2019-02-12T19:17:11.866Z,74.93
2019-02-12T19:19:39.539Z,75.03
2019-02-12T19:22:06.792Z,75.37
2019-02-12T19:24:33.398Z,75.56
2019-02-12T19:27:00.397Z,75.46
2019-02-12T19:29:32.174Z,75.48
2019-02-12T19:33:28.525Z,75.66
2019-02-12T19:35:59.013Z,75.68
2019-02-12T19:38:34.580Z,75.53
2019-02-12T19:41:02.429Z,75.64
2019-02-12T19:43:34.845Z,75.94
2019-02-12T19:46:08.030Z,75.78
2019-02-12T19:48:38.840Z,75.89
2019-02-12T19:51:05.470Z,75.95
2019-02-12T19:53:33.035Z,75.93
2019-02-12T19:56:07.750Z,76.12
2019-02-12T19:58:34.371Z,76.23
2019-02-12T20:01:01.262Z,76.54
2019-02-12T20:03:35.610Z,76.65
2019-02-12T20:06:06.270Z,77.14
2019-02-12T20:08:36.050Z,77.54
2019-02-12T20:11:04.854Z,77.80
2019-02-12T20:13:32.916Z,78.12
2019-02-12T20:15:59.446Z,78.49
2019-02-12T20:18:32.802Z,78.40
2019-02-12T20:21:11.746Z,78.91
2019-02-12T20:23:47.981Z,79.19
2019-02-12T20:26:20.091Z,79.54
2019-02-12T20:28:46.663Z,80.04
2019-02-12T20:31:44.308Z,80.37
2019-02-12T20:34:11.427Z,80.69
2019-02-12T20:36:39.268Z,81.10
2019-02-12T20:39:08.688Z,81.50
2019-02-12T20:41:35.367Z,81.57
2019-02-12T20:44:03.001Z,81.76
2019-02-12T20:46:30.889Z,81.76
2019-02-12T20:49:00.046Z,82.02
2019-02-12T20:51:32.759Z,81.94
2019-02-12T20:54:04.416Z,82.14
2019-02-12T20:56:31.108Z,82.33
2019-02-12T20:58:58.107Z,82.37
2019-02-12T21:01:24.936Z,82.61
2019-02-12T21:03:51.925Z,82.55
2019-02-12T21:06:19.437Z,82.60
2019-02-12T21:08:47.942Z,82.84
2019-02-12T21:11:14.711Z,82.88
2019-02-12T21:13:41.634Z,83.16
2019-02-12T21:16:09.203Z,83.41
2019-02-12T21:18:35.851Z,83.40
2019-02-12T21:21:02.487Z,83.24
2019-02-12T21:23:29.471Z,83.30
2019-02-12T21:25:56.101Z,83.14
2019-02-12T21:28:23.703Z,83.24
2019-02-12T21:30:50.445Z,83.05
2019-02-12T21:33:18.649Z,82.90
2019-02-12T21:35:45.805Z,82.73
2019-02-12T21:38:15.439Z,82.70
2019-02-12T21:40:42.343Z,82.68
2019-02-12T21:43:09.057Z,82.42
2019-02-12T21:45:35.637Z,82.08
2019-02-12T21:48:02.552Z,82.12
2019-02-12T21:50:29.658Z,82.00
2019-02-12T21:52:56.194Z,81.81
2019-02-12T21:55:23.086Z,81.70
2019-02-12T21:57:50.084Z,81.78
2019-02-12T22:00:16.751Z,81.77
2019-02-12T22:02:43.484Z,81.80
2019-02-12T22:05:10.501Z,81.88
2019-02-12T22:07:37.070Z,81.82
2019-02-12T22:10:05.217Z,81.59
2019-02-12T22:12:32.172Z,81.44
2019-02-12T22:14:58.727Z,81.42
2019-02-12T22:17:25.250Z,81.48
2019-02-12T22:19:52.167Z,81.42
2019-02-12T22:22:18.820Z,81.72
2019-02-12T22:24:45.376Z,81.63
2019-02-12T22:27:12.007Z,82.02
2019-02-12T22:29:38.968Z,82.16
2019-02-12T22:32:05.509Z,81.97
2019-02-12T22:34:32.020Z,81.78
2019-02-12T22:36:58.656Z,81.71
2019-02-12T22:39:25.468Z,81.78
2019-02-12T22:41:52.364Z,81.76
2019-02-12T22:44:19.343Z,81.57
2019-02-12T22:46:46.248Z,81.34
2019-02-12T22:49:13.208Z,81.23
2019-02-12T22:51:40.065Z,81.04
2019-02-12T22:54:07.162Z,81.24
2019-02-12T22:56:34.037Z,81.29
2019-02-12T22:59:00.988Z,81.14
2019-02-12T23:01:35.799Z,81.49
2019-02-12T23:04:03.573Z,81.78
2019-02-12T23:06:30.413Z,81.91
2019-02-12T23:08:57.351Z,81.85
2019-02-12T23:11:24.299Z,81.78
2019-02-12T23:13:51.142Z,81.75
2019-02-12T23:16:17.732Z,81.85
2019-02-12T23:18:46.300Z,82.20
2019-02-12T23:21:12.981Z,82.30
2019-02-12T23:23:39.764Z,82.23
2019-02-12T23:26:06.552Z,82.00
2019-02-12T23:28:33.048Z,82.11
2019-02-12T23:30:59.962Z,82.29
2019-02-12T23:33:26.498Z,82.55
2019-02-12T23:35:53.137Z,82.47
2019-02-12T23:38:19.786Z,82.64
2019-02-12T23:40:46.447Z,82.72
2019-02-12T23:43:13.155Z,82.60
2019-02-12T23:45:39.738Z,82.88
2019-02-12T23:48:06.375Z,82.95
2019-02-12T23:50:32.924Z,82.86
2019-02-12T23:52:59.663Z,82.81
2019-02-12T23:55:27.577Z,82.78
2019-02-12T23:57:54.621Z,82.54
